Time;durP1;ratioP1;P1;durP2;ratioP2;P2;SDS_P1;SDS_P2;PMS_P1;PMS_P2;Temp;Humidity;BMP_temperature;BMP_pressure;BME280_temperature;BME280_humidity;BME280_pressure;Samples;Min_cycle;Max_cycle;Signal;HPM_P1;HPM_P2
2021/03/12 00:00:15;;;;;;;3.63;0.52;;;5.50;99.90;;;;;;5019658;28;20037;-74
2021/03/12 00:02:42;;;;;;;3.55;0.75;;;5.60;99.90;;;;;;5014029;28;20033;-73
2021/03/12 00:05:10;;;;;;;1.85;0.57;;;5.70;99.90;;;;;;5016672;28;20026;-73
2021/03/12 00:07:37;;;;;;;5.80;0.85;;;5.70;99.90;;;;;;5025736;28;20045;-74
2021/03/12 00:10:17;;;;;;;1.67;0.65;;;5.80;99.90;;;;;;5013971;28;20391;-74
2021/03/12 00:12:44;;;;;;;1.73;0.63;;;5.80;99.90;;;;;;5013854;28;20030;-73
2021/03/12 00:15:17;;;;;;;2.10;0.70;;;5.80;99.90;;;;;;5013965;28;20034;-73
2021/03/12 00:17:45;;;;;;;2.92;0.65;;;5.80;99.90;;;;;;5014021;28;20041;-74
2021/03/12 00:20:15;;;;;;;5.93;0.80;;;5.80;99.90;;;;;;5018232;28;20042;-74
2021/03/12 00:22:42;;;;;;;3.20;0.80;;;5.70;99.90;;;;;;5012897;28;20038;-74
2021/03/12 00:25:11;;;;;;;3.83;0.93;;;5.70;99.90;;;;;;5013737;28;20029;-74
2021/03/12 00:27:38;;;;;;;2.28;1.15;;;5.70;99.90;;;;;;5013587;28;20057;-74
2021/03/12 00:30:07;;;;;;;1.65;0.90;;;5.80;99.90;;;;;;5025187;28;20041;-74
2021/03/12 00:32:34;;;;;;;3.53;0.90;;;6.00;99.90;;;;;;5013024;28;20034;-75
2021/03/12 00:35:01;;;;;;;5.03;1.55;;;5.90;99.90;;;;;;5014026;28;20041;-74
2021/03/12 00:37:27;;;;;;;3.88;1.73;;;5.90;99.90;;;;;;5020968;28;20049;-73
2021/03/12 00:39:54;;;;;;;2.85;1.17;;;6.10;99.90;;;;;;5013206;28;20447;-74
2021/03/12 00:42:21;;;;;;;6.15;1.33;;;6.20;99.90;;;;;;4996244;28;20395;-74
2021/03/12 00:44:47;;;;;;;3.50;1.35;;;6.10;99.90;;;;;;5016461;28;20054;-74
2021/03/12 00:47:15;;;;;;;2.72;1.08;;;6.00;99.90;;;;;;5023983;28;20042;-74
2021/03/12 00:49:41;;;;;;;3.30;1.27;;;6.00;99.90;;;;;;5030564;28;20038;-74
2021/03/12 00:52:08;;;;;;;3.17;1.20;;;6.00;99.90;;;;;;5031275;28;20056;-74
2021/03/12 00:54:34;;;;;;;2.92;1.00;;;6.00;99.90;;;;;;5020333;28;20026;-74
2021/03/12 00:57:13;;;;;;;1.92;1.00;;;5.90;99.90;;;;;;5012108;28;20048;-73
2021/03/12 00:59:39;;;;;;;2.90;0.65;;;6.00;99.90;;;;;;5026491;28;20048;-74
2021/03/12 01:02:05;;;;;;;6.40;1.25;;;6.30;99.90;;;;;;5012264;28;20492;-74
2021/03/12 01:04:32;;;;;;;4.18;2.17;;;6.30;99.90;;;;;;5012151;28;20042;-74
2021/03/12 01:07:08;;;;;;;3.65;1.55;;;6.30;99.90;;;;;;5012334;28;20057;-74
2021/03/12 01:09:34;;;;;;;3.47;1.65;;;6.30;99.90;;;;;;5024937;28;20475;-74
2021/03/12 01:12:01;;;;;;;4.82;1.50;;;6.20;99.90;;;;;;5028425;28;20501;-74
2021/03/12 01:14:28;;;;;;;4.22;1.60;;;6.10;99.90;;;;;;5030272;28;20041;-74
2021/03/12 01:16:54;;;;;;;4.47;1.75;;;6.10;99.90;;;;;;5029804;28;20064;-74
2021/03/12 01:19:22;;;;;;;2.63;1.55;;;6.10;99.90;;;;;;5025662;28;20033;-74
2021/03/12 01:21:55;;;;;;;6.70;1.60;;;6.30;99.90;;;;;;5024825;28;20510;-74
2021/03/12 01:24:24;;;;;;;3.08;1.85;;;6.20;99.90;;;;;;5030144;28;20120;-74
2021/03/12 01:26:59;;;;;;;5.35;1.48;;;6.20;99.90;;;;;;5030623;28;20045;-73
2021/03/12 01:29:26;;;;;;;4.63;1.35;;;6.30;99.90;;;;;;5022718;28;20045;-74
2021/03/12 01:32:06;;;;;;;3.55;2.05;;;6.30;99.90;;;;;;5012700;28;20038;-74
2021/03/12 01:34:38;;;;;;;3.60;1.48;;;6.40;99.90;;;;;;5020083;28;20034;-74
2021/03/12 01:37:06;;;;;;;2.72;1.52;;;6.40;99.90;;;;;;5020499;28;20369;-74
2021/03/12 01:39:41;;;;;;;5.50;1.45;;;6.40;99.90;;;;;;5011697;28;20088;-72
2021/03/12 01:42:07;;;;;;;8.55;1.63;;;6.30;99.90;;;;;;5023754;28;20498;-73
2021/03/12 01:44:38;;;;;;;7.65;1.63;;;6.40;99.90;;;;;;5026442;28;20513;-73
2021/03/12 01:47:04;;;;;;;6.03;1.45;;;6.40;99.90;;;;;;5029484;28;20045;-73
2021/03/12 01:49:30;;;;;;;6.18;1.45;;;6.30;99.90;;;;;;5030383;28;20049;-73
2021/03/12 01:51:57;;;;;;;7.38;1.30;;;6.30;99.90;;;;;;5031590;28;20048;-73
2021/03/12 01:54:23;;;;;;;9.60;1.48;;;6.30;99.90;;;;;;5028585;28;20390;-73
2021/03/12 01:56:59;;;;;;;4.93;1.95;;;6.40;99.90;;;;;;5021891;28;20427;-74
2021/03/12 01:59:44;;;;;;;7.05;1.75;;;6.30;99.90;;;;;;5023638;28;20034;-73
2021/03/12 02:02:31;;;;;;;7.15;1.65;;;6.30;99.90;;;;;;5017406;28;20050;-74
2021/03/12 02:05:09;;;;;;;5.90;1.38;;;6.20;99.90;;;;;;5028016;28;20041;-73
2021/03/12 02:07:39;;;;;;;4.85;1.35;;;6.20;99.90;;;;;;5012310;28;20053;-74
2021/03/12 02:10:27;;;;;;;7.40;1.55;;;6.40;99.90;;;;;;5030063;28;20046;-73
2021/03/12 02:13:13;;;;;;;4.15;1.10;;;6.30;99.90;;;;;;5012101;28;20049;-73
2021/03/12 02:15:44;;;;;;;5.22;1.50;;;6.30;99.90;;;;;;5013597;28;20034;-73
2021/03/12 02:18:22;;;;;;;6.22;1.50;;;6.40;99.90;;;;;;5015979;28;20048;-73
2021/03/12 02:20:59;;;;;;;4.45;1.13;;;6.40;99.90;;;;;;5029083;28;20285;-73
2021/03/12 02:23:48;;;;;;;7.10;1.77;;;6.30;99.90;;;;;;5016327;28;20046;-73
2021/03/12 02:26:42;;;;;;;4.57;1.58;;;6.40;99.90;;;;;;5025935;28;20074;-74
2021/03/12 02:29:20;;;;;;;4.80;2.13;;;6.30;99.90;;;;;;5038726;28;20045;-74
2021/03/12 02:31:49;;;;;;;5.35;1.50;;;6.40;99.90;;;;;;5031966;28;20052;-74
2021/03/12 02:34:20;;;;;;;4.68;1.10;;;6.40;99.90;;;;;;5015425;28;20047;-74
2021/03/12 02:36:52;;;;;;;6.28;1.77;;;6.50;99.90;;;;;;5014720;28;20110;-74
2021/03/12 02:39:22;;;;;;;2.80;1.20;;;6.60;99.90;;;;;;5017462;28;20065;-74
2021/03/12 02:41:53;;;;;;;4.80;0.95;;;6.60;99.90;;;;;;5014784;28;20042;-71
2021/03/12 02:44:31;;;;;;;7.70;2.63;;;6.40;99.90;;;;;;5014974;28;20050;-73
2021/03/12 02:47:10;;;;;;;4.97;1.90;;;6.30;99.90;;;;;;5016291;28;20045;-73
2021/03/12 02:49:37;;;;;;;9.88;2.88;;;6.10;99.90;;;;;;5035363;28;20045;-73
2021/03/12 02:52:04;;;;;;;8.02;2.20;;;6.20;99.90;;;;;;5033626;28;20045;-73
2021/03/12 02:54:31;;;;;;;6.32;2.22;;;6.30;99.90;;;;;;5029116;28;20038;-73
2021/03/12 02:56:58;;;;;;;3.47;1.42;;;6.40;99.90;;;;;;5018016;28;20491;-72
2021/03/12 02:59:25;;;;;;;6.68;1.42;;;6.40;99.90;;;;;;5004101;28;20045;-73
2021/03/12 03:02:19;;;;;;;6.45;2.13;;;6.40;99.90;;;;;;5033528;28;20046;-73
2021/03/12 03:05:06;;;;;;;6.85;2.42;;;6.30;99.90;;;;;;5016341;28;20041;-73
2021/03/12 03:07:41;;;;;;;4.82;2.10;;;6.20;99.90;;;;;;5029005;28;20050;-73
2021/03/12 03:10:10;;;;;;;4.50;2.15;;;6.10;99.90;;;;;;5015722;28;20057;-73
2021/03/12 03:12:36;;;;;;;4.25;1.83;;;6.00;99.90;;;;;;5033550;28;20363;-73
2021/03/12 03:15:05;;;;;;;7.72;2.70;;;5.90;99.90;;;;;;5018111;28;20042;-73
2021/03/12 03:17:35;;;;;;;4.47;1.73;;;5.90;99.90;;;;;;5030226;28;20049;-72
2021/03/12 03:20:06;;;;;;;5.70;2.92;;;5.90;99.90;;;;;;5020406;28;20042;-73
2021/03/12 03:22:33;;;;;;;4.45;1.70;;;5.90;99.90;;;;;;5020150;28;20493;-73
2021/03/12 03:25:00;;;;;;;5.05;2.13;;;5.80;99.90;;;;;;5031631;28;20041;-73
2021/03/12 03:27:27;;;;;;;8.35;2.17;;;5.70;99.90;;;;;;5030934;28;20045;-74
2021/03/12 03:29:54;;;;;;;2.97;1.38;;;5.60;99.90;;;;;;5045612;28;20049;-73
2021/03/12 03:32:20;;;;;;;3.53;1.33;;;5.60;99.90;;;;;;5031841;28;20403;-73
2021/03/12 03:34:47;;;;;;;8.20;2.67;;;5.70;99.90;;;;;;5032579;28;20237;-74
2021/03/12 03:37:13;;;;;;;5.68;1.60;;;5.60;99.90;;;;;;5032552;28;20049;-74
2021/03/12 03:39:42;;;;;;;5.10;1.75;;;5.60;99.90;;;;;;5032218;28;20049;-73
2021/03/12 03:42:11;;;;;;;4.78;1.27;;;5.80;98.30;;;;;;5021406;28;20136;-73
2021/03/12 03:44:41;;;;;;;5.90;0.93;;;6.00;96.90;;;;;;5024172;28;20053;-73
2021/03/12 03:47:09;;;;;;;6.88;1.00;;;6.10;95.80;;;;;;5013800;28;20053;-73
2021/03/12 03:49:38;;;;;;;5.50;1.55;;;6.10;95.10;;;;;;5029339;28;20565;-73
2021/03/12 03:52:07;;;;;;;3.38;0.98;;;6.30;93.60;;;;;;5013635;28;20045;-73
2021/03/12 03:54:40;;;;;;;4.25;1.40;;;6.30;93.60;;;;;;5033038;28;20479;-73
2021/03/12 03:57:12;;;;;;;5.00;1.70;;;6.20;93.50;;;;;;5029635;28;20054;-73
2021/03/12 03:59:40;;;;;;;5.07;1.75;;;6.30;93.20;;;;;;5025753;28;20375;-73
2021/03/12 04:02:10;;;;;;;4.68;1.50;;;6.30;93.60;;;;;;5022849;28;20069;-73
2021/03/12 04:04:37;;;;;;;8.40;1.80;;;6.30;93.70;;;;;;5019179;28;20046;-73
2021/03/12 04:07:09;;;;;;;11.85;2.05;;;6.30;93.10;;;;;;5031418;28;20056;-73
2021/03/12 04:09:37;;;;;;;5.03;1.40;;;6.30;92.60;;;;;;5047519;28;20044;-73
2021/03/12 04:12:07;;;;;;;4.53;1.20;;;6.40;92.00;;;;;;5013085;28;20038;-73
2021/03/12 04:14:36;;;;;;;5.85;1.55;;;6.50;92.20;;;;;;5014178;28;20034;-73
2021/03/12 04:17:03;;;;;;;10.57;1.33;;;6.40;92.20;;;;;;5026516;28;20049;-74
2021/03/12 04:19:31;;;;;;;7.30;1.85;;;6.40;92.40;;;;;;5032391;28;20349;-74
2021/03/12 04:21:59;;;;;;;4.32;1.40;;;6.30;92.70;;;;;;5030741;28;20053;-74
2021/03/12 04:24:27;;;;;;;7.50;1.10;;;6.30;92.80;;;;;;5029424;28;20038;-74
2021/03/12 04:26:54;;;;;;;8.15;1.58;;;6.20;93.10;;;;;;5012248;28;20399;-73
2021/03/12 04:29:26;;;;;;;5.50;1.35;;;6.20;93.00;;;;;;5037149;28;20058;-73
2021/03/12 04:31:53;;;;;;;5.95;1.42;;;6.30;92.70;;;;;;5027242;28;20048;-74
2021/03/12 04:34:19;;;;;;;6.95;1.40;;;6.30;92.50;;;;;;5015654;28;20392;-73
2021/03/12 04:36:47;;;;;;;4.40;1.10;;;6.10;92.70;;;;;;5026648;28;20057;-74
2021/03/12 04:39:13;;;;;;;4.35;1.27;;;6.20;91.00;;;;;;5019613;28;20048;-74
2021/03/12 04:41:40;;;;;;;9.52;1.67;;;6.30;90.40;;;;;;5025767;28;20037;-74
2021/03/12 04:44:12;;;;;;;4.25;1.15;;;6.30;89.10;;;;;;5012072;28;20042;-73
2021/03/12 04:46:40;;;;;;;6.43;1.20;;;6.40;87.80;;;;;;5012176;28;20046;-73
2021/03/12 04:49:08;;;;;;;8.73;1.92;;;6.40;88.10;;;;;;5016016;28;20049;-73
2021/03/12 04:51:37;;;;;;;5.78;1.30;;;6.50;86.60;;;;;;5027867;28;20045;-73
2021/03/12 04:54:09;;;;;;;6.32;1.17;;;6.50;86.80;;;;;;5030303;28;20052;-73
2021/03/12 04:56:37;;;;;;;6.53;1.15;;;6.50;86.90;;;;;;5014508;28;20042;-73
2021/03/12 04:59:04;;;;;;;4.20;1.20;;;6.50;87.00;;;;;;5014269;28;20041;-73
2021/03/12 05:01:35;;;;;;;4.00;1.98;;;6.40;87.30;;;;;;5022202;28;20407;-73
2021/03/12 05:04:06;;;;;;;7.35;1.50;;;6.30;88.80;;;;;;5024338;28;20042;-73
2021/03/12 05:06:33;;;;;;;5.22;1.30;;;6.30;89.20;;;;;;5029327;28;20050;-73
2021/03/12 05:09:13;;;;;;;8.48;1.40;;;6.30;90.00;;;;;;5019438;28;20046;-73
2021/03/12 05:11:43;;;;;;;5.68;1.30;;;6.30;89.70;;;;;;5011598;28;20034;-73
2021/03/12 05:14:26;;;;;;;7.85;2.13;;;6.50;89.70;;;;;;5013811;28;20042;-73
2021/03/12 05:16:53;;;;;;;6.65;2.38;;;6.40;89.90;;;;;;5018558;28;20060;-73
2021/03/12 05:19:21;;;;;;;3.40;1.20;;;6.20;90.50;;;;;;5027490;28;20060;-73
2021/03/12 05:21:55;;;;;;;10.57;3.95;;;6.20;91.20;;;;;;5011668;28;20518;-73
2021/03/12 05:24:22;;;;;;;11.65;4.80;;;6.20;91.30;;;;;;5013038;28;20049;-73
2021/03/12 05:26:50;;;;;;;10.00;1.25;;;6.20;92.30;;;;;;5011654;28;20069;-73
2021/03/12 05:29:20;;;;;;;9.02;2.85;;;6.20;93.00;;;;;;5012641;28;20041;-73
2021/03/12 05:31:52;;;;;;;;;;;6.10;93.80;;;;;;5027225;28;20061;-73
2021/03/12 05:34:18;;;;;;;6.85;1.65;;;6.10;93.80;;;;;;5013044;28;19936;-74
2021/03/12 05:36:44;;;;;;;8.57;2.65;;;6.10;94.00;;;;;;5011018;28;20064;-73
2021/03/12 05:39:13;;;;;;;6.28;2.28;;;6.10;94.20;;;;;;5018099;28;20045;-73
2021/03/12 05:41:40;;;;;;;4.80;1.77;;;6.10;95.00;;;;;;5012637;28;20488;-74
2021/03/12 05:44:06;;;;;;;8.48;2.30;;;6.00;95.20;;;;;;5030609;28;20049;-74
2021/03/12 05:46:34;;;;;;;12.65;3.05;;;6.00;95.10;;;;;;5029434;28;20037;-74
2021/03/12 05:49:03;;;;;;;7.57;3.10;;;6.10;95.10;;;;;;5030421;28;20045;-72
2021/03/12 05:51:33;;;;;;;9.07;2.70;;;6.10;95.50;;;;;;5029299;28;20033;-73
2021/03/12 05:54:02;;;;;;;11.13;2.53;;;6.00;95.70;;;;;;5029089;28;20046;-74
2021/03/12 05:56:29;;;;;;;8.52;2.97;;;6.00;95.80;;;;;;5019952;28;20053;-73
2021/03/12 05:59:05;;;;;;;7.60;3.08;;;6.00;95.80;;;;;;5010592;28;20053;-71
2021/03/12 06:01:32;;;;;;;19.63;6.68;;;5.90;96.30;;;;;;5033795;28;20057;-72
2021/03/12 06:03:59;;;;;;;7.68;2.13;;;5.80;96.40;;;;;;5019780;28;20038;-71
2021/03/12 06:06:30;;;;;;;5.60;1.60;;;5.80;96.30;;;;;;5024098;28;20050;-71
2021/03/12 06:08:58;;;;;;;8.80;1.55;;;5.90;95.90;;;;;;5015902;28;20045;-71
2021/03/12 06:11:25;;;;;;;12.40;3.17;;;5.90;96.10;;;;;;5024906;28;20038;-71
2021/03/12 06:13:54;;;;;;;10.85;1.98;;;5.90;96.10;;;;;;5024463;28;20041;-71
2021/03/12 06:16:35;;;;;;;12.50;1.83;;;6.00;95.50;;;;;;5016221;28;20041;-71
2021/03/12 06:19:18;;;;;;;7.53;1.48;;;6.00;95.70;;;;;;5022211;28;20042;-71
2021/03/12 06:21:52;;;;;;;5.68;2.15;;;6.00;95.70;;;;;;5025964;28;20476;-71
2021/03/12 06:24:26;;;;;;;7.45;2.03;;;5.90;96.00;;;;;;5014543;28;20050;-72
2021/03/12 06:27:29;;;;;;;10.20;2.53;;;5.90;96.00;;;;;;5028705;28;20049;-72
2021/03/12 06:30:18;;;;;;;6.20;1.40;;;5.90;96.00;;;;;;5010727;28;20395;-71
2021/03/12 06:33:31;;;;;;;8.40;1.67;;;5.90;95.90;;;;;;5007750;28;20045;-71
2021/03/12 06:36:29;;;;;;;6.07;1.63;;;5.90;95.50;;;;;;5017620;28;20038;-72
2021/03/12 06:39:35;;;;;;;8.65;2.00;;;6.00;95.20;;;;;;5007899;28;20053;-71
2021/03/12 06:42:11;;;;;;;10.07;1.70;;;6.00;94.90;;;;;;5032530;28;20038;-70
2021/03/12 06:44:47;;;;;;;6.72;2.38;;;6.00;94.90;;;;;;5028837;28;20399;-71
2021/03/12 06:47:23;;;;;;;21.23;7.10;;;6.00;94.50;;;;;;5013686;28;20041;-71
2021/03/12 06:50:14;;;;;;;9.13;2.20;;;6.00;94.30;;;;;;5030029;28;20490;-71
2021/03/12 06:52:53;;;;;;;7.93;1.88;;;6.20;93.80;;;;;;5014853;28;20407;-71
2021/03/12 06:55:43;;;;;;;6.35;1.35;;;7.40;92.30;;;;;;5021626;28;20042;-72
2021/03/12 06:58:23;;;;;;;2.95;0.80;;;8.90;85.70;;;;;;5014311;28;20056;-71
2021/03/12 07:01:00;;;;;;;7.90;1.88;;;9.20;82.30;;;;;;5020333;28;20061;-72
2021/03/12 07:03:34;;;;;;;8.07;2.33;;;9.70;79.40;;;;;;5026053;28;20046;-72
2021/03/12 07:06:41;;;;;;;5.97;1.63;;;10.30;75.70;;;;;;5029000;28;20037;-71
2021/03/12 07:09:07;;;;;;;12.50;2.05;;;9.00;76.80;;;;;;5031963;28;20049;-71
2021/03/12 07:11:44;;;;;;;4.30;1.35;;;8.50;78.90;;;;;;5032572;28;20399;-71
2021/03/12 07:14:42;;;;;;;8.30;1.60;;;9.00;79.10;;;;;;5018283;28;20042;-71
2021/03/12 07:17:19;;;;;;;6.45;1.98;;;10.30;75.10;;;;;;5029303;28;20041;-72
2021/03/12 07:19:46;;;;;;;17.70;7.30;;;11.50;71.60;;;;;;5013219;28;20378;-72
2021/03/12 07:22:16;;;;;;;6.68;2.53;;;10.90;70.40;;;;;;5013297;28;20507;-72
2021/03/12 07:24:46;;;;;;;6.07;1.73;;;10.50;72.60;;;;;;5014913;28;20065;-72
2021/03/12 07:27:17;;;;;;;6.97;2.10;;;10.60;71.70;;;;;;5029480;28;20041;-72
2021/03/12 07:30:07;;;;;;;14.63;7.22;;;10.20;71.70;;;;;;5018438;28;20494;-72
2021/03/12 07:32:45;;;;;;;5.93;1.42;;;9.30;74.40;;;;;;5031623;28;20041;-72
2021/03/12 07:35:15;;;;;;;9.50;3.08;;;8.50;76.30;;;;;;5014524;28;20038;-71
2021/03/12 07:38:12;;;;;;;8.05;2.63;;;8.10;79.10;;;;;;5013535;28;20054;-71
2021/03/12 07:40:47;;;;;;;20.45;8.25;;;8.00;79.60;;;;;;5021513;28;20046;-71
2021/03/12 07:43:39;;;;;;;7.95;3.42;;;7.80;80.20;;;;;;5013491;28;20519;-71
2021/03/12 07:46:16;;;;;;;14.05;8.23;;;7.80;80.90;;;;;;5029499;28;20042;-71
2021/03/12 07:48:55;;;;;;;24.55;10.85;;;7.80;81.00;;;;;;5013950;28;20026;-71
2021/03/12 07:51:46;;;;;;;35.20;18.88;;;7.70;81.60;;;;;;5039686;28;20052;-71
2021/03/12 07:54:41;;;;;;;9.35;4.63;;;7.60;82.20;;;;;;5025042;28;20406;-71
2021/03/12 07:57:39;;;;;;;7.05;2.75;;;7.90;83.30;;;;;;5013459;28;20056;-72
2021/03/12 08:00:26;;;;;;;8.32;3.35;;;8.40;81.20;;;;;;5030019;28;20037;-72
2021/03/12 08:03:27;;;;;;;5.10;1.52;;;8.30;81.50;;;;;;5018974;28;20048;-72
2021/03/12 08:06:27;;;;;;;6.80;1.10;;;8.50;80.80;;;;;;5016250;28;20046;-72
2021/03/12 08:09:35;;;;;;;9.07;3.38;;;8.60;79.60;;;;;;5046151;28;20048;-72
2021/03/12 08:12:33;;;;;;;5.90;1.75;;;8.80;79.10;;;;;;5020052;28;20407;-71
2021/03/12 08:15:13;;;;;;;5.47;1.35;;;10.00;77.70;;;;;;5011633;28;20476;-73
2021/03/12 08:17:44;;;;;;;3.60;1.58;;;12.30;70.50;;;;;;5037065;28;20045;-72
2021/03/12 08:20:25;;;;;;;4.28;2.40;;;13.40;66.50;;;;;;5028322;28;20045;-80
2021/03/12 08:23:14;;;;;;;4.65;2.03;;;13.70;63.70;;;;;;5018231;28;20049;-73
2021/03/12 08:25:48;;;;;;;5.45;2.08;;;13.30;62.60;;;;;;5020101;28;20025;-73
2021/03/12 08:28:34;;;;;;;;;;;12.50;63.00;;;;;;5023772;28;20056;-73
2021/03/12 08:31:13;;;;;;;4.03;1.30;;;12.00;65.90;;;;;;5019563;28;19917;-72
2021/03/12 08:33:51;;;;;;;6.22;1.73;;;11.80;65.40;;;;;;5020437;28;20054;-72
2021/03/12 08:37:11;;;;;;;5.57;2.00;;;12.80;63.70;;;;;;5027533;28;20522;-72
2021/03/12 08:40:11;;;;;;;6.82;2.15;;;13.10;62.30;;;;;;5023087;28;20045;-72
2021/03/12 08:43:09;;;;;;;6.75;2.17;;;11.90;61.90;;;;;;5018447;28;20045;-72
2021/03/12 08:45:58;;;;;;;8.88;1.40;;;11.20;65.10;;;;;;5025007;28;20061;-72
2021/03/12 08:48:38;;;;;;;7.03;2.70;;;11.10;66.30;;;;;;5011911;28;20052;-72
2021/03/12 08:51:10;;;;;;;5.65;1.70;;;12.40;65.10;;;;;;5025163;28;20038;-72
2021/03/12 08:54:02;;;;;;;4.55;1.17;;;12.60;61.50;;;;;;5011479;28;20052;-73
2021/03/12 08:56:42;;;;;;;6.88;1.80;;;12.60;59.60;;;;;;5014893;28;20042;-73
2021/03/12 08:59:09;;;;;;;6.35;1.88;;;13.70;59.00;;;;;;5018774;28;20141;-72
2021/03/12 09:02:21;;;;;;;5.35;1.38;;;14.00;57.50;;;;;;5015392;28;20483;-73
2021/03/12 09:04:53;;;;;;;4.07;1.10;;;13.70;57.90;;;;;;5025141;28;20037;-72
2021/03/12 09:07:56;;;;;;;5.60;1.50;;;13.20;57.60;;;;;;5018091;28;20045;-72
2021/03/12 09:10:38;;;;;;;6.40;1.30;;;13.00;58.10;;;;;;5012670;28;20045;-72
2021/03/12 09:13:19;;;;;;;4.85;1.27;;;12.70;57.50;;;;;;5038610;28;20052;-71
2021/03/12 09:15:48;;;;;;;3.33;0.70;;;12.30;58.60;;;;;;5013526;28;20037;-71
2021/03/12 09:18:20;;;;;;;3.78;1.25;;;11.70;59.60;;;;;;5030895;28;20052;-71
2021/03/12 09:20:52;;;;;;;5.45;1.75;;;12.40;59.00;;;;;;5017202;28;20044;-72
2021/03/12 09:23:33;;;;;;;5.70;1.30;;;11.40;59.70;;;;;;5015836;28;20048;-71
2021/03/12 09:25:59;;;;;;;9.48;3.83;;;10.60;61.80;;;;;;5020786;28;20375;-73
2021/03/12 09:28:30;;;;;;;11.50;3.97;;;10.20;63.20;;;;;;5028593;28;20048;-72
2021/03/12 09:31:07;;;;;;;5.13;2.22;;;10.00;63.20;;;;;;5026861;28;20068;-73
2021/03/12 09:33:46;;;;;;;6.72;3.00;;;9.60;62.80;;;;;;5029951;28;20049;-72
2021/03/12 09:36:29;;;;;;;8.10;2.72;;;9.50;65.10;;;;;;5012907;28;20038;-72
2021/03/12 09:39:13;;;;;;;5.80;1.27;;;9.70;65.80;;;;;;5024454;28;20061;-72
2021/03/12 09:41:44;;;;;;;4.90;1.95;;;9.70;62.20;;;;;;5033293;28;20037;-73
2021/03/12 09:44:13;;;;;;;9.23;1.20;;;9.90;62.50;;;;;;5032308;28;20041;-73
2021/03/12 09:46:49;;;;;;;7.88;1.80;;;10.20;62.10;;;;;;5023508;28;20046;-73
2021/03/12 09:49:25;;;;;;;10.15;1.45;;;10.50;60.20;;;;;;5019798;28;20050;-72
2021/03/12 09:51:54;;;;;;;7.13;2.92;;;11.40;59.10;;;;;;5024915;28;20064;-73
2021/03/12 09:54:24;;;;;;;7.13;1.40;;;11.20;57.80;;;;;;5018270;28;20042;-73
2021/03/12 09:56:57;;;;;;;3.90;0.70;;;11.40;58.20;;;;;;5039944;28;20033;-73
2021/03/12 09:59:38;;;;;;;7.05;1.30;;;11.40;58.00;;;;;;5025860;28;20056;-73
2021/03/12 10:02:30;;;;;;;5.50;1.00;;;11.50;56.80;;;;;;5014835;28;20041;-73
2021/03/12 10:05:20;;;;;;;3.80;1.17;;;11.90;56.70;;;;;;5018852;28;20055;-73
2021/03/12 10:08:02;;;;;;;9.65;2.20;;;11.50;56.10;;;;;;5022484;28;20416;-73
2021/03/12 10:10:55;;;;;;;11.23;1.60;;;11.30;56.40;;;;;;5014858;28;20038;-73
2021/03/12 10:13:27;;;;;;;5.60;0.95;;;11.50;56.60;;;;;;5027055;28;20037;-72
2021/03/12 10:16:11;;;;;;;4.15;0.82;;;11.50;55.10;;;;;;5015152;28;20048;-72
2021/03/12 10:18:56;;;;;;;7.75;1.02;;;10.90;57.00;;;;;;5024006;28;20060;-72
2021/03/12 10:21:23;;;;;;;4.75;0.98;;;10.90;56.60;;;;;;5015336;28;20037;-72
2021/03/12 10:23:50;;;;;;;6.07;1.35;;;10.60;56.80;;;;;;5015450;28;20041;-73
2021/03/12 10:26:17;;;;;;;3.47;0.93;;;10.80;55.90;;;;;;5029992;28;20092;-73
2021/03/12 10:28:47;;;;;;;3.88;0.77;;;10.90;55.90;;;;;;5033614;28;20033;-73
2021/03/12 10:31:14;;;;;;;4.30;0.98;;;10.90;55.50;;;;;;5032875;28;20355;-73
2021/03/12 10:33:50;;;;;;;4.57;1.15;;;10.90;55.40;;;;;;5031861;28;20379;-73
2021/03/12 10:36:18;;;;;;;5.18;1.05;;;11.00;55.90;;;;;;5028776;28;20037;-73
2021/03/12 10:38:47;;;;;;;8.52;1.52;;;11.50;54.80;;;;;;5016151;28;20479;-74
2021/03/12 10:41:26;;;;;;;6.80;1.60;;;11.70;54.80;;;;;;5020377;28;20410;-73
2021/03/12 10:44:01;;;;;;;4.07;1.10;;;11.80;54.30;;;;;;5020225;28;20046;-72
2021/03/12 10:46:28;;;;;;;4.07;0.88;;;11.60;53.80;;;;;;5022072;28;20033;-72
2021/03/12 10:48:54;;;;;;;3.72;1.02;;;11.60;53.80;;;;;;5020580;28;20029;-72
2021/03/12 10:51:21;;;;;;;6.20;0.93;;;11.30;54.30;;;;;;5020663;28;20029;-72
2021/03/12 10:53:55;;;;;;;4.88;1.52;;;11.20;54.30;;;;;;5025995;28;20056;-72
2021/03/12 10:56:26;;;;;;;6.57;0.88;;;11.20;54.00;;;;;;5033012;28;20052;-75
2021/03/12 10:58:53;;;;;;;;;;;10.90;55.50;;;;;;5017349;28;20042;-74
2021/03/12 11:01:29;;;;;;;3.22;0.88;;;10.70;55.30;;;;;;5017440;28;19924;-74
2021/03/12 11:03:58;;;;;;;7.90;2.13;;;10.40;56.80;;;;;;5030276;28;20026;-74
2021/03/12 11:06:35;;;;;;;5.28;1.10;;;10.40;56.90;;;;;;5014851;28;20034;-74
2021/03/12 11:09:10;;;;;;;2.83;0.77;;;10.30;56.90;;;;;;5018293;28;20060;-76
2021/03/12 11:11:37;;;;;;;9.02;1.48;;;10.10;56.70;;;;;;5023219;28;20034;-76
2021/03/12 11:14:04;;;;;;;8.10;0.95;;;10.00;57.60;;;;;;5014696;28;20034;-75
2021/03/12 11:16:37;;;;;;;7.35;1.23;;;10.10;58.10;;;;;;5022547;28;20041;-75
2021/03/12 11:19:06;;;;;;;5.00;0.82;;;10.10;58.70;;;;;;5018444;28;20038;-74
2021/03/12 11:21:33;;;;;;;4.68;1.00;;;10.20;59.50;;;;;;5014933;28;20026;-73
2021/03/12 11:23:59;;;;;;;6.78;1.25;;;10.10;59.30;;;;;;5014479;28;20040;-73
2021/03/12 11:26:26;;;;;;;7.43;1.05;;;10.30;59.10;;;;;;5014642;28;20476;-74
2021/03/12 11:28:52;;;;;;;9.15;1.45;;;10.00;60.60;;;;;;5013789;28;20038;-74
2021/03/12 11:31:19;;;;;;;7.20;1.88;;;9.90;67.40;;;;;;5022132;28;20404;-74
2021/03/12 11:33:46;;;;;;;12.60;1.42;;;9.90;70.70;;;;;;5015056;28;20046;-75
2021/03/12 11:36:12;;;;;;;6.18;1.45;;;9.70;73.50;;;;;;5014570;28;20033;-74
2021/03/12 11:38:38;;;;;;;5.10;1.30;;;9.60;70.60;;;;;;5014005;28;20391;-74
2021/03/12 11:41:05;;;;;;;7.57;2.30;;;9.70;71.50;;;;;;5012877;28;20053;-73
2021/03/12 11:43:31;;;;;;;9.02;2.05;;;9.80;71.20;;;;;;5015403;28;20053;-74
2021/03/12 11:45:58;;;;;;;10.00;2.20;;;10.30;68.90;;;;;;5031188;28;20029;-74
2021/03/12 11:48:24;;;;;;;7.07;2.47;;;10.50;67.50;;;;;;5016078;28;20034;-74
2021/03/12 11:50:51;;;;;;;10.77;1.95;;;10.70;68.20;;;;;;5013845;28;20387;-74
2021/03/12 11:53:19;;;;;;;4.57;1.10;;;10.80;66.60;;;;;;5013160;28;20045;-74
2021/03/12 11:55:45;;;;;;;5.32;1.67;;;11.10;65.60;;;;;;5014420;28;20037;-74
2021/03/12 11:58:12;;;;;;;6.55;1.75;;;10.90;63.20;;;;;;5013955;28;20065;-74
2021/03/12 12:00:38;;;;;;;5.20;1.70;;;10.70;64.00;;;;;;5017339;28;20025;-74
2021/03/12 12:03:05;;;;;;;8.10;1.80;;;10.30;66.10;;;;;;5018015;28;20037;-73
2021/03/12 12:05:31;;;;;;;7.22;2.03;;;9.80;73.10;;;;;;5021228;28;20482;-75
2021/03/12 12:07:58;;;;;;;5.32;1.52;;;9.60;74.90;;;;;;5020799;28;20034;-73
2021/03/12 12:10:24;;;;;;;6.65;1.90;;;9.50;78.80;;;;;;5023966;28;20038;-73
2021/03/12 12:12:55;;;;;;;3.78;1.08;;;9.70;75.80;;;;;;5031598;28;20032;-73
2021/03/12 12:15:22;;;;;;;;;;;10.00;74.70;;;;;;5029685;28;20045;-72
2021/03/12 12:17:48;;;;;;;7.55;1.52;;;10.20;72.50;;;;;;5020280;28;20366;-73
2021/03/12 12:20:16;;;;;;;6.72;1.95;;;10.50;69.30;;;;;;5020723;28;20029;-73
2021/03/12 12:22:44;;;;;;;5.85;1.73;;;10.60;66.90;;;;;;5013458;28;20034;-74
2021/03/12 12:25:11;;;;;;;7.03;1.23;;;10.60;66.00;;;;;;5013570;28;20038;-75
2021/03/12 12:27:38;;;;;;;3.70;1.05;;;10.70;66.70;;;;;;5014991;28;20925;-71
2021/03/12 12:30:06;;;;;;;7.20;1.60;;;10.90;65.70;;;;;;5016550;28;20037;-72
2021/03/12 12:32:32;;;;;;;6.70;1.70;;;10.90;63.80;;;;;;5028104;28;20029;-71
2021/03/12 12:34:58;;;;;;;7.95;1.58;;;10.80;61.60;;;;;;5020926;28;20034;-73
2021/03/12 12:37:24;;;;;;;9.02;1.83;;;10.90;63.50;;;;;;5013624;28;20033;-74
2021/03/12 12:39:51;;;;;;;8.23;1.48;;;10.90;62.20;;;;;;5015905;28;20033;-73
2021/03/12 12:42:17;;;;;;;8.00;2.38;;;10.90;60.40;;;;;;5025191;28;20466;-74
2021/03/12 12:44:44;;;;;;;8.10;2.03;;;11.00;58.20;;;;;;5028036;28;20046;-73
2021/03/12 12:47:10;;;;;;;12.70;5.10;;;11.00;58.30;;;;;;5027525;28;20037;-73
2021/03/12 12:49:36;;;;;;;7.43;1.70;;;11.00;57.60;;;;;;5031564;28;20507;-73
2021/03/12 12:52:04;;;;;;;9.77;3.20;;;11.10;55.80;;;;;;5021179;28;20471;-73
2021/03/12 12:54:31;;;;;;;5.10;1.63;;;11.20;56.20;;;;;;5012615;28;20094;-73
2021/03/12 12:56:59;;;;;;;9.38;4.13;;;11.00;56.50;;;;;;5029656;28;20036;-74
2021/03/12 12:59:26;;;;;;;9.38;3.80;;;10.90;58.90;;;;;;5016890;28;20054;-73
2021/03/12 13:01:52;;;;;;;3.60;1.67;;;10.70;62.20;;;;;;5018064;28;20030;-74
2021/03/12 13:04:18;;;;;;;28.70;12.57;;;10.80;62.30;;;;;;5022116;28;20398;-72
2021/03/12 13:06:45;;;;;;;8.45;3.67;;;11.10;63.30;;;;;;5016517;28;20124;-72
2021/03/12 13:09:11;;;;;;;8.30;2.75;;;11.40;60.40;;;;;;5023134;28;20044;-73
2021/03/12 13:11:37;;;;;;;12.05;4.40;;;11.50;58.80;;;;;;5022920;28;20026;-79
2021/03/12 13:14:04;;;;;;;13.10;6.75;;;11.50;57.90;;;;;;5024247;28;20387;-73
2021/03/12 13:16:30;;;;;;;12.82;4.75;;;11.40;57.80;;;;;;5029352;28;20056;-73
2021/03/12 13:18:57;;;;;;;7.90;2.33;;;11.20;57.80;;;;;;5023186;28;20068;-73
2021/03/12 13:21:24;;;;;;;10.60;5.18;;;11.10;57.10;;;;;;5024457;28;20033;-73
2021/03/12 13:23:51;;;;;;;19.52;10.48;;;11.30;57.00;;;;;;5021945;28;20037;-73